createdAt,value
2023-02-24T00:02:00.218Z,101598.00
2023-02-24T00:04:35.311Z,101589.19
2023-02-24T00:07:02.948Z,101592.81
2023-02-24T00:09:31.608Z,101586.34
2023-02-24T00:12:09.929Z,101588.28
2023-02-24T00:14:40.997Z,101587.34
2023-02-24T00:17:09.089Z,101576.91
2023-02-24T00:19:38.032Z,101580.75
2023-02-24T00:22:07.834Z,101570.13
2023-02-24T00:24:35.739Z,101573.00
2023-02-24T00:27:10.903Z,101567.72
2023-02-24T00:29:39.801Z,101577.31
2023-02-24T00:32:08.368Z,101571.44
2023-02-24T00:34:37.711Z,101555.72
2023-02-24T00:37:07.094Z,101556.59
2023-02-24T00:39:36.157Z,101556.00
2023-02-24T00:42:06.292Z,101562.88
2023-02-24T00:44:40.969Z,101553.25
2023-02-24T00:47:10.619Z,101553.25
2023-02-24T00:49:42.480Z,101551.47
2023-02-24T00:52:16.457Z,101548.88
2023-02-24T00:54:45.959Z,101541.03
2023-02-24T00:57:14.341Z,101539.34
2023-02-24T00:59:42.455Z,101535.22
2023-02-24T01:02:11.505Z,101535.31
2023-02-24T01:04:38.736Z,101537.09
2023-02-24T01:07:10.705Z,101534.63
2023-02-24T01:09:40.458Z,101527.69
2023-02-24T01:12:38.007Z,101521.31
2023-02-24T01:15:09.162Z,101519.59
2023-02-24T01:17:37.902Z,101521.44
2023-02-24T01:20:17.047Z,101515.41
2023-02-24T01:22:53.429Z,101519.66
2023-02-24T01:25:20.866Z,101511.78
2023-02-24T01:27:48.139Z,101507.53
2023-02-24T01:30:18.820Z,101505.72
2023-02-24T01:32:47.347Z,101503.13
2023-02-24T01:35:15.130Z,101501.50
2023-02-24T01:37:43.159Z,101497.91
2023-02-24T01:40:20.936Z,101491.66
2023-02-24T01:42:49.427Z,101486.59
2023-02-24T01:45:22.762Z,101482.19
2023-02-24T01:47:51.487Z,101479.75
2023-02-24T01:50:23.279Z,101477.94
2023-02-24T01:52:56.164Z,101474.31
2023-02-24T01:55:32.374Z,101465.06
2023-02-24T01:58:04.959Z,101472.81
2023-02-24T02:00:38.481Z,101464.25
2023-02-24T02:03:16.397Z,101454.03
2023-02-24T02:05:48.538Z,101457.53
2023-02-24T02:08:17.748Z,101451.22
2023-02-24T02:10:45.410Z,101437.00
2023-02-24T02:13:21.005Z,101435.28
2023-02-24T02:16:16.658Z,101431.84
2023-02-24T02:19:55.524Z,101425.00
2023-02-24T02:22:46.462Z,101419.72
2023-02-24T02:25:45.055Z,101407.56
2023-02-24T02:28:39.169Z,101416.41
2023-02-24T02:32:03.771Z,101419.84
2023-02-24T02:35:02.213Z,101405.31
2023-02-24T02:37:50.612Z,101400.16
2023-02-24T02:40:44.067Z,101396.38
2023-02-24T02:43:41.504Z,101390.34
2023-02-24T02:46:14.921Z,101388.63
2023-02-24T02:48:59.496Z,101393.72
2023-02-24T02:51:46.897Z,101384.09
2023-02-24T02:54:31.861Z,101376.97
2023-02-24T02:57:16.504Z,101380.41
2023-02-24T02:59:52.611Z,101379.72
2023-02-24T03:02:28.654Z,101378.00
2023-02-24T03:05:00.728Z,101378.75
2023-02-24T03:07:35.038Z,101384.94
2023-02-24T03:10:11.033Z,101377.66
2023-02-24T03:12:41.296Z,101373.41
2023-02-24T03:15:12.998Z,101367.28
2023-02-24T03:17:45.397Z,101363.28
2023-02-24T03:20:32.621Z,101362.03
2023-02-24T03:23:11.480Z,101355.03
2023-02-24T03:25:50.578Z,101360.06
2023-02-24T03:28:37.520Z,101354.44
2023-02-24T03:31:22.724Z,101350.25
2023-02-24T03:34:06.663Z,101348.78
2023-02-24T03:36:34.030Z,101350.06
2023-02-24T03:39:02.144Z,101350.88
2023-02-24T03:41:39.544Z,101340.16
2023-02-24T03:44:11.145Z,101336.59
2023-02-24T03:46:39.246Z,101336.59
2023-02-24T03:49:17.004Z,101335.78
2023-02-24T03:52:21.480Z,101331.88
2023-02-24T03:55:24.265Z,101323.09
2023-02-24T03:58:27.882Z,101315.69
2023-02-24T04:00:57.827Z,101320.75
2023-02-24T04:03:57.732Z,101327.38
2023-02-24T04:06:41.822Z,101316.28
2023-02-24T04:09:29.370Z,101310.84
2023-02-24T04:11:59.693Z,101299.28
2023-02-24T04:14:51.060Z,101299.97
2023-02-24T04:17:30.581Z,101302.28
2023-02-24T04:20:10.367Z,101290.81
2023-02-24T04:22:37.803Z,101290.69
2023-02-24T04:25:13.290Z,101287.19
2023-02-24T04:27:42.987Z,101292.97
2023-02-24T04:30:11.975Z,101285.75
2023-02-24T04:32:39.145Z,101286.63
2023-02-24T04:35:10.004Z,101279.78
2023-02-24T04:37:39.679Z,101271.25
2023-02-24T04:40:10.855Z,101278.22
2023-02-24T04:42:46.424Z,101277.41
2023-02-24T04:45:32.938Z,101273.09
2023-02-24T04:48:02.210Z,101275.69
2023-02-24T04:50:36.377Z,101280.09
2023-02-24T04:53:07.689Z,101274.38
2023-02-24T04:56:08.815Z,101265.06
2023-02-24T04:58:39.619Z,101261.72
2023-02-24T05:01:12.351Z,101264.78
2023-02-24T05:03:42.515Z,101265.44
2023-02-24T05:06:17.922Z,101259.44
2023-02-24T05:08:45.640Z,101256.91
2023-02-24T05:11:18.339Z,101248.34
2023-02-24T05:13:46.229Z,101246.34
2023-02-24T05:16:17.191Z,101234.16
2023-02-24T05:18:44.830Z,101230.75
2023-02-24T05:21:34.162Z,101221.97
2023-02-24T05:24:08.484Z,101221.91
2023-02-24T05:26:38.432Z,101224.22
2023-02-24T05:29:06.795Z,101219.91
2023-02-24T05:31:34.386Z,101218.13
2023-02-24T05:34:05.873Z,101217.22
2023-02-24T05:36:40.636Z,101212.66
2023-02-24T05:39:12.007Z,101210.38
2023-02-24T05:41:42.492Z,101207.72
2023-02-24T05:44:15.810Z,101207.97
2023-02-24T05:46:46.677Z,101205.78
2023-02-24T05:49:31.290Z,101202.84
2023-02-24T05:52:01.596Z,101207.09
2023-02-24T05:54:37.064Z,101202.03
2023-02-24T05:57:13.944Z,101201.81
2023-02-24T05:59:42.281Z,101197.28
2023-02-24T06:02:13.880Z,101190.44
2023-02-24T06:04:50.949Z,101185.91
2023-02-24T06:07:34.293Z,101188.66
2023-02-24T06:10:04.798Z,101178.19
2023-02-24T06:12:34.623Z,101176.19
2023-02-24T06:15:07.505Z,101171.88
2023-02-24T06:17:34.817Z,101169.13
2023-02-24T06:20:01.861Z,101178.47
2023-02-24T06:22:29.186Z,101161.25
2023-02-24T06:24:56.905Z,101145.94
2023-02-24T06:27:25.266Z,101152.78
2023-02-24T06:29:54.909Z,101151.06
2023-02-24T06:32:25.551Z,101139.84
2023-02-24T06:34:54.077Z,101145.81
2023-02-24T06:37:22.832Z,101148.41
2023-02-24T06:39:50.106Z,101131.03
2023-02-24T06:42:17.138Z,101129.38
2023-02-24T06:44:44.081Z,101130.28
2023-02-24T06:47:14.481Z,101138.19
2023-02-24T06:49:44.722Z,101132.47
2023-02-24T06:52:12.038Z,101105.84
2023-02-24T06:54:39.082Z,101092.53
2023-02-24T06:57:06.473Z,101092.56
2023-02-24T06:59:34.310Z,101087.84
2023-02-24T07:02:04.423Z,101093.53
2023-02-24T07:04:36.284Z,101091.25
2023-02-24T07:07:03.725Z,101091.47
2023-02-24T07:09:32.107Z,101093.47
2023-02-24T07:12:02.617Z,101086.53
2023-02-24T07:14:33.348Z,101085.78
2023-02-24T07:17:00.676Z,101092.94
2023-02-24T07:19:32.392Z,101089.56
2023-02-24T07:22:03.375Z,101076.47
2023-02-24T07:24:40.560Z,101077.44
2023-02-24T07:27:21.782Z,101073.13
2023-02-24T07:29:52.738Z,101078.47
2023-02-24T07:32:22.444Z,101073.34
2023-02-24T07:34:49.640Z,101077.84
2023-02-24T07:37:16.991Z,101071.72
2023-02-24T07:39:44.059Z,101070.88
2023-02-24T07:42:15.085Z,101068.28
2023-02-24T07:44:44.555Z,101071.84
2023-02-24T07:47:12.048Z,101050.81
2023-02-24T07:49:41.040Z,101056.13
2023-02-24T07:52:09.047Z,101054.44
2023-02-24T07:54:37.238Z,101053.59
2023-02-24T07:57:05.576Z,101052.75
2023-02-24T07:59:37.588Z,101055.44
2023-02-24T08:02:07.837Z,101049.31
2023-02-24T08:04:36.447Z,101050.22
2023-02-24T08:07:04.340Z,101038.81
2023-02-24T08:09:47.141Z,101042.34
2023-02-24T08:12:22.536Z,101030.97
2023-02-24T08:14:53.119Z,101028.34
2023-02-24T08:17:26.381Z,101026.63
2023-02-24T08:20:28.474Z,101017.00
2023-02-24T08:22:56.472Z,101021.47
2023-02-24T08:25:38.362Z,101013.59
2023-02-24T08:28:11.590Z,101005.72
2023-02-24T08:30:45.580Z,100996.94
2023-02-24T08:33:23.533Z,100995.19
2023-02-24T08:36:02.081Z,100997.81
2023-02-24T08:38:44.683Z,100986.44
2023-02-24T08:41:18.069Z,100990.84
2023-02-24T08:43:47.148Z,100981.19
2023-02-24T08:46:26.596Z,100972.38
2023-02-24T08:49:01.123Z,100971.47
2023-02-24T08:51:35.542Z,100966.22
2023-02-24T08:54:11.378Z,100975.06
2023-02-24T08:56:43.551Z,100956.59
2023-02-24T08:59:37.599Z,100959.25
2023-02-24T09:02:23.284Z,100950.47
2023-02-24T09:04:59.614Z,100941.66
2023-02-24T09:07:35.462Z,100943.44
2023-02-24T09:10:11.527Z,100935.53
2023-02-24T09:12:41.321Z,100934.66
2023-02-24T09:15:10.386Z,100928.41
2023-02-24T09:17:40.560Z,100930.28
2023-02-24T09:20:38.757Z,100921.34
2023-02-24T09:23:08.881Z,100909.13
2023-02-24T09:25:44.534Z,100897.75
2023-02-24T09:28:17.395Z,100898.66
2023-02-24T09:30:56.134Z,100903.06
2023-02-24T09:33:50.980Z,100891.63
2023-02-24T09:36:20.757Z,100892.50
2023-02-24T09:39:03.123Z,100885.41
2023-02-24T09:41:54.743Z,100880.16
2023-02-24T09:44:33.325Z,100879.75
2023-02-24T09:47:31.328Z,100879.16
2023-02-24T09:50:05.986Z,100890.63
2023-02-24T09:52:42.256Z,100887.16
2023-02-24T09:56:01.189Z,100880.63
2023-02-24T09:58:55.432Z,100859.34
2023-02-24T10:01:42.729Z,100864.13
2023-02-24T10:04:21.010Z,100862.06
2023-02-24T10:07:15.565Z,100856.28
2023-02-24T10:10:28.332Z,100848.34
2023-02-24T10:13:14.025Z,100850.25
2023-02-24T10:15:58.329Z,100849.56
2023-02-24T10:18:48.579Z,100845.84
2023-02-24T10:21:50.386Z,100838.22
2023-02-24T10:24:48.542Z,100843.34
2023-02-24T10:27:27.205Z,100853.69
2023-02-24T10:30:27.982Z,100844.75
2023-02-24T10:33:00.526Z,100840.28
2023-02-24T10:35:33.682Z,100845.16
2023-02-24T10:38:06.639Z,100840.00
2023-02-24T10:40:46.888Z,100842.81
2023-02-24T10:43:30.214Z,100835.66
2023-02-24T10:46:17.239Z,100828.78
2023-02-24T10:49:03.029Z,100832.44
2023-02-24T10:51:41.923Z,100837.69
2023-02-24T10:54:25.096Z,100833.28
2023-02-24T10:57:00.949Z,100831.75
2023-02-24T10:59:58.478Z,100825.13
2023-02-24T11:02:32.815Z,100826.16
2023-02-24T11:05:27.136Z,100811.81
2023-02-24T11:08:26.218Z,100810.78
2023-02-24T11:10:58.654Z,100811.03
2023-02-24T11:13:45.346Z,100809.91
2023-02-24T11:16:31.313Z,100805.03
2023-02-24T11:18:58.553Z,100797.16
2023-02-24T11:21:27.788Z,100801.59
2023-02-24T11:24:02.997Z,100789.09
2023-02-24T11:26:38.313Z,100785.84
2023-02-24T11:29:26.258Z,100790.19
2023-02-24T11:32:46.362Z,100791.03
2023-02-24T11:35:31.453Z,100786.72
2023-02-24T11:38:28.023Z,100771.38
2023-02-24T11:41:13.998Z,100777.66
2023-02-24T11:43:45.971Z,100768.44
2023-02-24T11:46:21.781Z,100776.31
2023-02-24T11:48:57.728Z,100768.19
2023-02-24T11:51:30.259Z,100763.50
2023-02-24T11:54:04.261Z,100765.22
2023-02-24T11:57:07.920Z,100762.00
2023-02-24T11:59:51.453Z,100751.53
2023-02-24T12:02:41.717Z,100742.84
2023-02-24T12:05:16.945Z,100754.34
2023-02-24T12:07:54.762Z,100745.63
2023-02-24T12:11:12.342Z,100738.66
2023-02-24T12:13:53.057Z,100744.78
2023-02-24T12:16:30.778Z,100729.59
2023-02-24T12:19:32.022Z,100722.25
2023-02-24T12:22:24.290Z,100722.59
2023-02-24T12:24:52.871Z,100714.84
2023-02-24T12:27:32.119Z,100707.88
2023-02-24T12:30:48.728Z,100700.06
2023-02-24T12:34:02.925Z,100706.16
2023-02-24T12:36:46.349Z,100717.53
2023-02-24T12:39:29.638Z,100707.88
2023-02-24T12:42:38.653Z,100705.16
2023-02-24T12:45:18.715Z,100698.91
2023-02-24T12:48:02.802Z,100698.00
2023-02-24T12:51:03.694Z,100712.22
2023-02-24T12:54:03.808Z,100706.94
2023-02-24T12:57:07.209Z,100698.22
2023-02-24T12:59:39.935Z,100685.00
2023-02-24T13:02:33.949Z,100682.41
2023-02-24T13:05:29.782Z,100688.59
2023-02-24T13:08:37.629Z,100676.28
2023-02-24T13:11:12.282Z,100669.25
2023-02-24T13:13:48.754Z,100660.34
2023-02-24T13:16:15.824Z,100655.09
2023-02-24T13:18:42.852Z,100660.34
2023-02-24T13:21:22.807Z,100648.88
2023-02-24T13:24:01.768Z,100653.31
2023-02-24T13:26:32.158Z,100660.38
2023-02-24T13:29:11.566Z,100661.25
2023-02-24T13:31:51.200Z,100644.41
2023-02-24T13:34:44.716Z,100641.94
2023-02-24T13:37:11.716Z,100648.09
2023-02-24T13:39:46.797Z,100634.72
2023-02-24T13:42:31.175Z,100633.88
2023-02-24T13:45:20.448Z,100629.38
2023-02-24T13:48:00.692Z,100622.56
2023-02-24T13:50:52.833Z,100618.81
2023-02-24T13:54:11.902Z,100613.56
2023-02-24T13:57:17.907Z,100603.63
2023-02-24T14:00:32.634Z,100604.78
2023-02-24T14:03:00.839Z,100601.25
2023-02-24T14:05:36.028Z,100603.88
2023-02-24T14:08:04.722Z,100585.41
2023-02-24T14:10:34.730Z,100595.22
2023-02-24T14:13:15.944Z,100600.50
2023-02-24T14:15:47.060Z,100594.25
2023-02-24T14:18:25.518Z,100596.09
2023-02-24T14:20:54.866Z,100608.53
2023-02-24T14:23:28.745Z,100592.75
2023-02-24T14:26:02.761Z,100588.34
2023-02-24T14:28:37.284Z,100591.84
2023-02-24T14:31:23.258Z,100583.75
2023-02-24T14:34:00.866Z,100590.94
2023-02-24T14:36:38.164Z,100592.47
2023-02-24T14:39:17.825Z,100588.97
2023-02-24T14:41:46.496Z,100595.16
2023-02-24T14:44:29.519Z,100590.66
2023-02-24T14:47:00.270Z,100591.50
2023-02-24T14:49:31.565Z,100579.09
2023-02-24T14:52:10.079Z,100592.81
2023-02-24T14:54:59.466Z,100581.66
2023-02-24T14:57:43.609Z,100578.28
2023-02-24T15:00:24.140Z,100577.47
2023-02-24T15:03:21.182Z,100574.84
2023-02-24T15:05:54.584Z,100591.22
2023-02-24T15:08:50.583Z,100587.25
2023-02-24T15:11:17.514Z,100575.84
2023-02-24T15:13:55.159Z,100578.75
2023-02-24T15:16:32.937Z,100581.84
2023-02-24T15:19:01.644Z,100568.00
2023-02-24T15:21:40.075Z,100575.00
2023-02-24T15:24:26.335Z,100587.22
2023-02-24T15:27:03.667Z,100579.34
2023-02-24T15:29:32.036Z,100579.31
2023-02-24T15:32:00.911Z,100572.66
2023-02-24T15:34:36.478Z,100565.56
2023-02-24T15:37:23.697Z,100573.09
2023-02-24T15:40:02.144Z,100561.03
2023-02-24T15:42:34.256Z,100566.78
2023-02-24T15:45:28.075Z,100557.09
2023-02-24T15:48:04.149Z,100557.66
2023-02-24T15:50:32.245Z,100571.94
2023-02-24T15:53:04.508Z,100554.25
2023-02-24T15:55:32.630Z,100551.44
2023-02-24T15:58:03.329Z,100543.34
2023-02-24T16:00:31.372Z,100553.81
2023-02-24T16:02:58.973Z,100565.81
2023-02-24T16:05:26.401Z,100566.91
2023-02-24T16:07:54.791Z,100568.63
2023-02-24T16:10:25.441Z,100576.38
2023-02-24T16:12:59.791Z,100567.25
2023-02-24T16:15:37.994Z,100575.56
2023-02-24T16:18:06.602Z,100582.59
2023-02-24T16:20:35.767Z,100575.41
2023-02-24T16:23:05.471Z,100584.78
2023-02-24T16:25:42.668Z,100594.06
2023-02-24T16:28:19.912Z,100597.19
2023-02-24T16:30:48.691Z,100603.78
2023-02-24T16:33:17.772Z,100598.47
2023-02-24T16:35:45.654Z,100597.47
2023-02-24T16:38:15.175Z,100601.09
2023-02-24T16:40:47.735Z,100606.59
2023-02-24T16:43:15.530Z,100606.13
2023-02-24T16:45:45.150Z,100601.00
2023-02-24T16:48:25.241Z,100605.63
2023-02-24T16:50:52.651Z,100606.09
2023-02-24T16:53:23.374Z,100608.19
2023-02-24T16:55:51.188Z,100613.41
2023-02-24T16:58:19.220Z,100616.06
2023-02-24T17:00:50.169Z,100605.34
2023-02-24T17:03:42.569Z,100613.47
2023-02-24T17:06:09.720Z,100600.97
2023-02-24T17:08:36.905Z,100607.16
2023-02-24T17:11:04.590Z,100613.91
2023-02-24T17:13:31.545Z,100609.69
2023-02-24T17:15:58.601Z,100615.13
2023-02-24T17:18:26.653Z,100615.22
2023-02-24T17:20:54.133Z,100619.69
2023-02-24T17:23:21.283Z,100625.75
2023-02-24T17:25:58.483Z,100623.91
2023-02-24T17:28:25.845Z,100631.94
2023-02-24T17:30:53.045Z,100641.22
2023-02-24T17:33:20.387Z,100642.84
2023-02-24T17:35:48.609Z,100639.47
2023-02-24T17:38:19.044Z,100644.72
2023-02-24T17:40:47.325Z,100645.28
2023-02-24T17:43:14.869Z,100644.38
2023-02-24T17:45:46.204Z,100640.88
2023-02-24T17:48:15.350Z,100639.69
2023-02-24T17:50:44.117Z,100653.41
2023-02-24T17:53:11.655Z,100645.88
2023-02-24T17:55:40.387Z,100656.91
2023-02-24T17:58:10.224Z,100654.50
2023-02-24T18:00:38.352Z,100657.78
2023-02-24T18:03:05.494Z,100654.50
2023-02-24T18:05:32.525Z,100659.63
2023-02-24T18:07:59.633Z,100671.69
2023-02-24T18:10:27.389Z,100670.13
2023-02-24T18:12:54.504Z,100676.28
2023-02-24T18:15:21.571Z,100685.66
2023-02-24T18:17:48.704Z,100684.72
2023-02-24T18:20:15.841Z,100683.41
2023-02-24T18:22:43.609Z,100688.53
2023-02-24T18:25:10.765Z,100682.59
2023-02-24T18:27:37.766Z,100695.38
2023-02-24T18:30:06.830Z,100700.72
2023-02-24T18:32:34.521Z,100701.44
2023-02-24T18:35:01.593Z,100702.41
2023-02-24T18:37:28.611Z,100712.00
2023-02-24T18:39:55.676Z,100703.28
2023-02-24T18:42:22.705Z,100702.16
2023-02-24T18:44:49.664Z,100710.78
2023-02-24T18:47:16.737Z,100703.94
2023-02-24T18:49:43.713Z,100702.97
2023-02-24T18:52:11.805Z,100701.84
2023-02-24T18:54:39.162Z,100698.50
2023-02-24T18:57:06.111Z,100697.75
2023-02-24T18:59:33.299Z,100696.75
2023-02-24T19:02:00.530Z,100704.41
2023-02-24T19:04:30.338Z,100706.78
2023-02-24T19:06:57.312Z,100702.31
2023-02-24T19:09:24.318Z,100705.91
2023-02-24T19:11:52.418Z,100707.31
2023-02-24T19:14:19.537Z,100711.44
2023-02-24T19:16:46.682Z,100714.16
2023-02-24T19:19:16.391Z,100721.66
2023-02-24T19:21:48.394Z,100716.66
2023-02-24T19:24:17.342Z,100719.28
2023-02-24T19:26:45.924Z,100730.44
2023-02-24T19:29:17.230Z,100734.81
2023-02-24T19:31:45.540Z,100737.09
2023-02-24T19:34:15.224Z,100745.22
2023-02-24T19:36:42.221Z,100748.56
2023-02-24T19:39:13.124Z,100745.69
2023-02-24T19:41:41.161Z,100743.59
2023-02-24T19:44:08.434Z,100739.84
2023-02-24T19:46:36.319Z,100735.38
2023-02-24T19:49:04.383Z,100742.09
2023-02-24T19:51:31.563Z,100742.09
2023-02-24T19:54:03.179Z,100745.66
2023-02-24T19:56:34.758Z,100733.66
2023-02-24T19:59:03.894Z,100740.44
2023-02-24T20:01:31.610Z,100744.13
2023-02-24T20:04:01.898Z,100745.59
2023-02-24T20:06:36.791Z,100748.78
2023-02-24T20:09:09.820Z,100754.94
2023-02-24T20:11:38.006Z,100748.94
2023-02-24T20:14:07.557Z,100746.91
2023-02-24T20:16:37.289Z,100754.72
2023-02-24T20:19:06.779Z,100763.13
2023-02-24T20:21:34.968Z,100767.63
2023-02-24T20:24:08.575Z,100773.38
2023-02-24T20:26:38.046Z,100771.56
2023-02-24T20:29:05.079Z,100770.72
2023-02-24T20:31:32.148Z,100773.38
2023-02-24T20:33:59.462Z,100769.91
2023-02-24T20:36:28.796Z,100776.88
2023-02-24T20:38:58.117Z,100763.97
2023-02-24T20:41:27.082Z,100762.91
2023-02-24T20:43:55.245Z,100757.84
2023-02-24T20:46:30.412Z,100758.19
2023-02-24T20:49:05.169Z,100773.91
2023-02-24T20:51:34.369Z,100775.50
2023-02-24T20:54:01.493Z,100773.91
2023-02-24T20:56:34.017Z,100767.06
2023-02-24T20:59:08.666Z,100780.94
2023-02-24T21:01:36.463Z,100785.09
2023-02-24T21:04:04.896Z,100805.78
2023-02-24T21:06:32.092Z,100787.66
2023-02-24T21:08:59.306Z,100786.66
2023-02-24T21:11:27.256Z,100790.13
2023-02-24T21:13:54.611Z,100787.28
2023-02-24T21:16:22.630Z,100796.88
2023-02-24T21:18:51.630Z,100771.81
2023-02-24T21:21:19.834Z,100772.66
2023-02-24T21:23:47.763Z,100780.19
2023-02-24T21:26:15.207Z,100783.31
2023-02-24T21:28:42.271Z,100789.41
2023-02-24T21:31:12.969Z,100787.56
2023-02-24T21:33:40.261Z,100787.41
2023-02-24T21:36:13.468Z,100792.22
2023-02-24T21:38:42.095Z,100795.97
2023-02-24T21:41:14.731Z,100802.31
2023-02-24T21:43:44.258Z,100800.72
2023-02-24T21:46:13.785Z,100805.81
2023-02-24T21:48:41.907Z,100813.63
2023-02-24T21:51:12.698Z,100845.06
2023-02-24T21:53:43.594Z,100847.63
2023-02-24T21:56:19.267Z,100842.81
2023-02-24T21:58:57.798Z,100845.75
2023-02-24T22:01:38.156Z,100838.63
2023-02-24T22:04:09.963Z,100833.69
2023-02-24T22:06:39.319Z,100836.47
2023-02-24T22:09:09.506Z,100827.69
2023-02-24T22:11:40.991Z,100829.94
2023-02-24T22:14:10.793Z,100824.84
2023-02-24T22:16:38.206Z,100828.09
2023-02-24T22:19:05.402Z,100827.44
2023-02-24T22:21:32.830Z,100824.97
2023-02-24T22:24:02.560Z,100829.09
2023-02-24T22:26:31.924Z,100823.91
2023-02-24T22:29:00.239Z,100825.72
2023-02-24T22:31:31.356Z,100830.88
2023-02-24T22:33:58.880Z,100832.81
2023-02-24T22:36:31.728Z,100831.13
2023-02-24T22:39:00.843Z,100825.91
2023-02-24T22:41:34.068Z,100830.22
2023-02-24T22:44:03.581Z,100831.06
2023-02-24T22:46:34.620Z,100835.44
2023-02-24T22:49:02.059Z,100832.66
2023-02-24T22:51:29.078Z,100834.31
2023-02-24T22:53:56.882Z,100837.91
2023-02-24T22:56:27.729Z,100837.09
2023-02-24T22:58:55.348Z,100834.31
2023-02-24T23:01:28.329Z,100836.25
2023-02-24T23:03:55.579Z,100830.22
2023-02-24T23:06:27.576Z,100837.97
2023-02-24T23:08:57.053Z,100845.06
2023-02-24T23:11:41.194Z,100854.44
2023-02-24T23:14:13.847Z,100855.69
2023-02-24T23:16:44.655Z,100857.34
2023-02-24T23:19:17.436Z,100843.19
2023-02-24T23:21:47.689Z,100852.88
2023-02-24T23:24:16.685Z,100844.06
2023-02-24T23:26:48.420Z,100854.25
2023-02-24T23:29:17.649Z,100844.06
2023-02-24T23:31:45.712Z,100850.16
2023-02-24T23:34:14.487Z,100856.03
2023-02-24T23:36:46.087Z,100858.56
2023-02-24T23:39:17.366Z,100857.56
2023-02-24T23:41:44.574Z,100869.94
2023-02-24T23:44:12.581Z,100867.97
2023-02-24T23:46:41.709Z,100868.16
2023-02-24T23:49:08.889Z,100869.81
2023-02-24T23:51:47.536Z,100861.22
2023-02-24T23:54:19.003Z,100861.88
2023-02-24T23:56:46.571Z,100867.16
2023-02-24T23:59:13.956Z,100870.00
